PATK/TKA METAR and TAF weather

Enter ICAO airport designator
Station Type Date Time Source
PATK METAR 2019/12/06 00:53 UTC NOAA

PATK 060053Z 02006KT 10SM CLR M14/M18 A2980 RMK SLP103 T11391178 $ VIA AUTODIAL


Station Type Date Time Source
PATK Decoded METAR 2019/12/06 00:53 UTC NOAA

TALKEETNA AIRPORT, AK, United States (PATK) 62-19N 150-06W 109M
Dec 05, 2019 - 07:53 PM EST / 2019.12.06 0053 UTC
Wind: from the NNE (020 degrees) at 7 MPH (6 KT):0
Visibility: 10 mile(s):0
Sky conditions: clear
Temperature: 7.0 F (-13.9 C)
Windchill: -4 F (-20 C):1
Dew Point: -0.0 F (-17.8 C)
Relative Humidity: 72%
Pressure (altimeter): 29.8 in. Hg (1009 hPa)
ob: PATK 060053Z 02006KT 10SM CLR M14/M18 A2980 RMK SLP103 T11391178 VIA AUTODIAL
cycle: 1

Station Type Date Time Source
PATK TAF 2019/12/05 18:42 UTC NOAA

PATK 051741Z 0518/0618 02004KT P6SM SKC
FM060600 01005KT P6SM BKN040
FM060900 02004KT P6SM VCSH BKN030
FM061300 02008KT 3SM -SN BR BKN020

Example: see airport list